Time;durP1;ratioP1;P1;durP2;ratioP2;P2;SDS_P1;SDS_P2;PMS_P1;PMS_P2;Temp;Humidity;BMP_temperature;BMP_pressure;BME280_temperature;BME280_humidity;BME280_pressure;Samples;Min_cycle;Max_cycle;Signal;HPM_P1;HPM_P2
2022/03/19 00:02:23;;;;;;;17.73;15.98;;;;;;;29.67;51.90;100632.69;5071250;28;70383;-39
2022/03/19 00:04:53;;;;;;;19.02;17.23;;;;;;;29.81;51.58;100641.50;5069993;27;66600;-39
2022/03/19 00:07:24;;;;;;;18.42;16.65;;;;;;;29.84;52.17;100643.78;5066537;28;69539;-39
2022/03/19 00:09:57;;;;;;;24.20;17.40;;;;;;;29.70;52.13;100609.75;5064270;28;64905;-39
2022/03/19 00:12:27;;;;;;;18.38;16.65;;;;;;;29.92;52.15;100645.38;5073814;28;70296;-40
2022/03/19 00:14:58;;;;;;;18.67;17.08;;;;;;;29.95;52.69;100650.34;5072767;27;66183;-39
2022/03/19 00:17:29;;;;;;;34.38;20.30;;;;;;;30.02;56.33;100651.13;5073608;28;71195;-39
2022/03/19 00:20:01;;;;;;;27.65;23.13;;;;;;;30.01;58.72;100635.97;5078210;28;65930;-39
2022/03/19 00:22:32;;;;;;;30.73;24.42;;;;;;;30.11;59.76;100643.56;5067615;28;70033;-39
2022/03/19 00:25:04;;;;;;;29.70;24.58;;;;;;;30.19;60.62;100652.22;5075434;28;66356;-39
2022/03/19 00:27:35;;;;;;;35.28;25.30;;;;;;;30.20;61.85;100651.22;5064127;28;70181;-39
2022/03/19 00:30:07;;;;;;;29.58;24.58;;;;;;;30.20;62.27;100637.69;5073844;27;65158;-37
2022/03/19 00:32:38;;;;;;;36.95;26.00;;;;;;;30.30;62.62;100658.84;5070618;28;69487;-37
2022/03/19 00:35:10;;;;;;;72.97;32.20;;;;;;;30.22;65.77;100651.81;5070291;27;66345;-38
2022/03/19 00:37:46;;;;;;;49.72;32.75;;;;;;;30.19;67.09;100667.66;5065787;28;69524;-37
2022/03/19 00:40:24;;;;;;;35.38;30.85;;;;;;;30.39;61.55;100659.38;5074872;28;66037;-38
2022/03/19 00:42:56;;;;;;;41.35;27.90;;;;;;;30.45;60.86;100656.63;5079551;28;69967;-37
2022/03/19 00:45:28;;;;;;;41.33;30.90;;;;;;;30.53;61.38;100668.19;5073107;27;66137;-37
2022/03/19 00:48:00;;;;;;;38.08;28.67;;;;;;;30.58;61.75;100663.78;5051215;28;70087;-37
2022/03/19 00:50:32;;;;;;;36.75;29.70;;;;;;;30.63;60.92;100669.34;5065550;28;66552;-38
2022/03/19 00:53:03;;;;;;;43.80;30.45;;;;;;;30.68;60.96;100666.81;5074518;28;68821;-36
2022/03/19 00:55:34;;;;;;;39.10;28.13;;;;;;;30.73;60.64;100664.25;5080556;27;65806;-37
2022/03/19 00:58:05;;;;;;;36.55;26.02;;;;;;;30.82;59.95;100666.69;5068757;28;69072;-37
2022/03/19 01:00:35;;;;;;;34.85;24.85;;;;;;;30.87;60.06;100669.53;5067630;28;66349;-37
2022/03/19 01:03:07;;;;;;;32.05;24.15;;;;;;;30.88;59.71;100655.78;5070591;28;70275;-37
2022/03/19 01:05:38;;;;;;;29.25;24.75;;;;;;;30.94;59.75;100659.47;5068874;28;66776;-37
2022/03/19 01:08:11;;;;;;;28.85;23.98;;;;;;;31.00;60.07;100661.28;5070609;28;69861;-36
2022/03/19 01:10:42;;;;;;;32.00;24.33;;;;;;;31.06;60.19;100657.66;5075205;28;66078;-37
2022/03/19 01:13:13;;;;;;;25.73;22.73;;;;;;;31.09;59.75;100657.22;5070725;27;71010;-37
2022/03/19 01:15:44;;;;;;;25.85;23.08;;;;;;;31.07;59.30;100653.91;5070781;27;66481;-37
2022/03/19 01:18:14;;;;;;;27.67;24.08;;;;;;;31.11;59.89;100652.38;5067108;28;70191;-38
2022/03/19 01:20:45;;;;;;;30.60;24.23;;;;;;;31.22;59.55;100669.75;5072253;28;66701;-38
2022/03/19 01:23:16;;;;;;;30.15;24.58;;;;;;;31.21;60.30;100661.88;5076592;28;69388;-37
2022/03/19 01:25:47;;;;;;;31.48;24.13;;;;;;;31.30;59.69;100676.75;5079910;28;66387;-38
2022/03/19 01:28:17;;;;;;;26.77;23.70;;;;;;;31.33;59.81;100679.00;5039552;28;69924;-36
2022/03/19 01:30:49;;;;;;;27.77;24.20;;;;;;;31.32;59.86;100671.94;5079043;28;66377;-39
2022/03/19 01:33:20;;;;;;;26.73;22.48;;;;;;;31.39;59.89;100664.56;5072906;27;69393;-37
2022/03/19 01:35:52;;;;;;;29.65;25.02;;;;;;;31.41;60.08;100669.78;5062263;28;66387;-37
2022/03/19 01:38:25;;;;;;;31.42;25.17;;;;;;;31.45;59.60;100666.34;5075435;28;70599;-37
2022/03/19 01:41:10;;;;;;;35.10;25.80;;;;;;;31.47;59.98;100668.84;5068711;28;65985;-37
2022/03/19 01:43:43;;;;;;;30.23;24.40;;;;;;;31.42;59.88;100655.16;5054350;28;70079;-38
2022/03/19 01:46:14;;;;;;;29.35;25.60;;;;;;;31.51;60.51;100664.59;5073034;28;66077;-38
2022/03/19 01:48:46;;;;;;;33.33;24.73;;;;;;;31.54;60.15;100675.84;5070769;27;69138;-38
2022/03/19 01:51:18;;;;;;;28.20;24.98;;;;;;;31.59;60.21;100667.84;5072382;28;65231;-38
2022/03/19 01:53:50;;;;;;;31.13;24.45;;;;;;;31.61;60.05;100659.47;5066380;28;70163;-37
2022/03/19 01:56:21;;;;;;;28.40;25.42;;;;;;;31.60;60.22;100665.97;5072763;28;65591;-38
2022/03/19 01:58:52;;;;;;;32.17;25.83;;;;;;;31.66;60.14;100670.44;5076153;28;70171;-37
2022/03/19 02:01:23;;;;;;;29.17;25.48;;;;;;;31.72;60.47;100671.41;5073735;27;66636;-38
2022/03/19 02:03:58;;;;;;;28.75;24.45;;;;;;;31.63;60.41;100656.53;5076684;28;44170;-38
2022/03/19 02:06:32;;;;;;;29.42;24.13;;;;;;;31.74;60.39;100670.13;5078360;28;65821;-38
2022/03/19 02:09:03;;;;;;;26.75;23.98;;;;;;;31.78;60.01;100665.06;5070069;28;70110;-38
2022/03/19 02:11:35;;;;;;;29.27;24.10;;;;;;;31.80;60.30;100668.38;5073732;28;66161;-37
2022/03/19 02:14:06;;;;;;;33.70;24.10;;;;;;;31.82;60.11;100663.56;5069858;28;70101;-37
2022/03/19 02:16:38;;;;;;;28.00;23.70;;;;;;;31.72;60.29;100639.69;5070345;28;65686;-37
2022/03/19 02:19:10;;;;;;;27.13;24.05;;;;;;;31.88;60.55;100654.47;5069794;28;69800;-37
2022/03/19 02:21:50;;;;;;;29.02;24.10;;;;;;;31.44;61.02;100588.81;5068719;28;66181;-38
2022/03/19 02:27:21;;;;;;;39.65;25.80;;;;;;;31.92;60.06;100647.53;5072598;28;66811;-39
2022/03/19 02:29:52;;;;;;;31.42;26.20;;;;;;;31.97;60.25;100652.28;5077976;27;69199;-39
2022/03/19 02:32:23;;;;;;;36.60;28.08;;;;;;;31.99;60.09;100640.16;5073404;27;66765;-38
2022/03/19 02:34:54;;;;;;;31.02;26.75;;;;;;;32.05;59.82;100650.06;5072138;27;69822;-39
2022/03/19 02:37:25;;;;;;;29.67;26.08;;;;;;;32.04;60.13;100651.13;5074578;27;65624;-38
2022/03/19 02:39:56;;;;;;;33.78;27.05;;;;;;;32.11;59.40;100652.91;5067904;27;70076;-40
2022/03/19 02:42:26;;;;;;;31.40;27.15;;;;;;;32.13;59.06;100645.34;5075325;28;65139;-38
2022/03/19 02:44:57;;;;;;;36.88;27.85;;;;;;;32.15;59.83;100651.34;5073623;27;69974;-38
2022/03/19 02:47:28;;;;;;;31.77;24.77;;;;;;;32.17;59.60;100651.94;5073749;27;66272;-40
2022/03/19 02:49:59;;;;;;;30.80;24.40;;;;;;;32.23;59.62;100640.16;5073528;28;70487;-39
2022/03/19 02:52:30;;;;;;;30.58;26.20;;;;;;;32.21;59.63;100639.59;5072703;27;64996;-38
2022/03/19 02:55:01;;;;;;;29.48;25.00;;;;;;;32.26;59.39;100645.09;5070107;27;70539;-37
2022/03/19 02:57:32;;;;;;;25.60;23.17;;;;;;;32.34;59.46;100647.47;5071665;28;66891;-38
2022/03/19 03:00:03;;;;;;;30.50;24.25;;;;;;;32.36;59.63;100644.53;5070200;28;69013;-38
2022/03/19 03:02:34;;;;;;;25.05;22.70;;;;;;;32.38;59.94;100642.41;5072114;27;65367;-39
2022/03/19 03:05:06;;;;;;;25.70;23.20;;;;;;;32.38;59.64;100626.94;5068839;28;70236;-39
2022/03/19 03:07:37;;;;;;;;;;;;;;;32.12;61.68;100639.06;5079103;28;66289;-38
2022/03/19 03:10:08;;;;;;;24.35;21.95;;;;;;;32.44;59.52;100634.13;5067113;27;69948;-38
2022/03/19 03:12:39;;;;;;;25.05;22.65;;;;;;;32.49;59.93;100633.47;5075096;28;65757;-39
2022/03/19 03:15:10;;;;;;;27.85;23.27;;;;;;;32.55;59.49;100626.25;5077528;27;70109;-39
2022/03/19 03:17:42;;;;;;;24.55;21.70;;;;;;;32.57;59.70;100637.69;5067251;28;65306;-38
2022/03/19 03:20:13;;;;;;;;;;;;;;;32.27;60.55;100625.88;5077588;27;70231;-40
2022/03/19 03:22:45;;;;;;;24.73;21.97;;;;;;;32.60;59.34;100620.94;5075136;28;66860;-39
2022/03/19 03:25:15;;;;;;;25.48;22.88;;;;;;;32.62;59.20;100622.34;5075548;28;70689;-39
2022/03/19 03:27:46;;;;;;;32.20;24.73;;;;;;;32.66;59.12;100626.25;5078463;28;65839;-37
2022/03/19 03:30:18;;;;;;;25.92;23.25;;;;;;;32.70;59.34;100618.44;5077622;27;71129;-39
2022/03/19 03:32:51;;;;;;;28.75;25.83;;;;;;;32.71;58.34;100617.38;5076794;28;66270;-39
2022/03/19 03:35:25;;;;;;;28.33;24.52;;;;;;;32.65;58.63;100602.88;5059943;28;70089;-38
2022/03/19 03:37:56;;;;;;;25.13;22.70;;;;;;;32.79;58.57;100616.16;5076690;28;65465;-39
2022/03/19 03:40:27;;;;;;;24.97;22.63;;;;;;;32.61;58.51;100584.56;5077436;28;70227;-38
2022/03/19 03:42:58;;;;;;;24.70;22.27;;;;;;;32.81;58.86;100603.19;5076249;27;66358;-46
2022/03/19 03:45:30;;;;;;;24.38;22.08;;;;;;;32.82;58.32;100594.81;5073321;28;69772;-38
2022/03/19 03:48:01;;;;;;;25.58;22.95;;;;;;;32.92;58.40;100611.28;5074938;28;65795;-38
2022/03/19 03:50:32;;;;;;;31.30;24.10;;;;;;;32.94;58.05;100608.34;5076324;27;69979;-38
2022/03/19 03:53:04;;;;;;;27.70;22.98;;;;;;;32.98;58.07;100603.25;5078651;28;66218;-43
2022/03/19 03:55:36;;;;;;;;;;;;;;;32.69;59.05;100595.88;5079332;27;69944;-38
2022/03/19 03:58:08;;;;;;;32.03;21.43;;;;;;;32.99;57.88;100588.59;5073529;28;65848;-39
2022/03/19 04:00:39;;;;;;;36.05;23.92;;;;;;;33.05;56.85;100582.25;5078380;28;69357;-38
2022/03/19 04:03:11;;;;;;;26.95;22.15;;;;;;;33.09;56.71;100583.38;5078635;28;66347;-37
2022/03/19 04:05:42;;;;;;;26.63;22.08;;;;;;;33.10;56.99;100577.72;5079766;28;70061;-39
2022/03/19 04:08:13;;;;;;;29.20;22.17;;;;;;;33.12;56.53;100580.19;5081073;28;65686;-38
2022/03/19 04:10:44;;;;;;;26.88;23.80;;;;;;;33.17;55.47;100569.41;5075422;28;69554;-38
2022/03/19 04:13:14;;;;;;;31.90;22.58;;;;;;;33.18;55.48;100554.75;5073421;28;66304;-39
2022/03/19 04:15:45;;;;;;;28.65;22.70;;;;;;;33.27;54.72;100556.03;5081255;27;70041;-40
2022/03/19 04:18:16;;;;;;;27.50;24.03;;;;;;;33.34;54.16;100564.00;5081299;28;67303;-38
2022/03/19 04:20:47;;;;;;;26.07;22.70;;;;;;;33.36;54.54;100557.25;5081049;27;70837;-39
2022/03/19 04:23:18;;;;;;;24.08;21.77;;;;;;;33.40;54.31;100548.59;5082181;27;66046;-38
2022/03/19 04:25:49;;;;;;;24.17;21.77;;;;;;;33.39;54.42;100539.63;5081619;28;69704;-39
2022/03/19 04:28:20;;;;;;;27.23;22.25;;;;;;;33.43;54.16;100529.09;5078719;28;66761;-38
2022/03/19 04:30:51;;;;;;;25.02;22.55;;;;;;;33.52;54.24;100533.06;5089594;27;69142;-38
2022/03/19 04:33:21;;;;;;;25.48;22.77;;;;;;;33.57;54.58;100535.88;5073864;28;65045;-39
2022/03/19 04:38:41;;;;;;;23.23;20.80;;;;;;;33.60;54.65;100524.53;5070102;28;65101;-38
2022/03/19 04:41:14;;;;;;;29.38;21.67;;;;;;;33.64;54.70;100514.78;5071484;28;70618;-38
2022/03/19 04:43:44;;;;;;;24.95;20.98;;;;;;;33.57;55.02;100495.06;5076641;27;66419;-38
2022/03/19 04:46:15;;;;;;;24.23;21.85;;;;;;;33.68;54.79;100515.94;5075509;28;69391;-39
2022/03/19 04:48:46;;;;;;;26.40;22.02;;;;;;;33.64;54.52;100493.03;5076655;28;65277;-37
2022/03/19 04:51:30;;;;;;;24.92;21.20;;;;;;;33.49;54.77;100465.56;5072457;27;69637;-38
2022/03/19 04:54:01;;;;;;;24.08;20.20;;;;;;;33.71;55.05;100493.69;5072945;28;65853;-39
2022/03/19 04:56:32;;;;;;;24.17;21.55;;;;;;;33.59;54.84;100476.63;5068399;28;70218;-38
2022/03/19 04:59:03;;;;;;;22.67;20.37;;;;;;;33.73;55.20;100490.72;5069573;28;66344;-38
2022/03/19 05:01:34;;;;;;;21.65;19.55;;;;;;;33.70;54.53;100475.72;5073236;27;70249;-38
2022/03/19 05:04:05;;;;;;;25.53;21.67;;;;;;;33.77;54.53;100487.25;5071762;28;65694;-39
2022/03/19 05:06:35;;;;;;;25.42;21.48;;;;;;;33.72;54.48;100459.97;5076568;28;70172;-39
2022/03/19 05:11:56;;;;;;;29.77;21.42;;;;;;;33.72;54.48;100440.94;5060432;28;70138;-42
2022/03/19 05:14:26;;;;;;;22.95;20.67;;;;;;;33.84;54.79;100446.25;5071708;28;65592;-39
2022/03/19 05:16:57;;;;;;;25.25;21.63;;;;;;;33.88;54.97;100438.41;5080205;27;70196;-38
2022/03/19 05:19:28;;;;;;;23.97;21.57;;;;;;;33.87;55.01;100436.78;5074564;28;65288;-39
2022/03/19 05:21:59;;;;;;;23.30;21.13;;;;;;;33.87;55.10;100431.31;5075170;28;69936;-39
2022/03/19 05:24:29;;;;;;;24.25;21.98;;;;;;;33.87;55.23;100426.69;5077818;28;65276;-40
2022/03/19 05:27:00;;;;;;;25.30;21.37;;;;;;;33.89;54.94;100423.75;5075441;28;69695;-39
2022/03/19 05:29:32;;;;;;;25.98;21.60;;;;;;;33.86;54.92;100413.38;5068565;28;66242;-39
2022/03/19 05:32:04;;;;;;;23.10;20.60;;;;;;;33.93;54.77;100414.00;5064256;27;70703;-39
2022/03/19 05:34:35;;;;;;;23.30;21.08;;;;;;;33.94;54.37;100415.66;5072001;28;66308;-39
2022/03/19 05:37:06;;;;;;;24.77;22.17;;;;;;;34.01;54.04;100408.09;5086885;27;70977;-39
2022/03/19 05:39:37;;;;;;;28.13;22.60;;;;;;;34.05;53.99;100400.31;5064195;28;66046;-38
2022/03/19 05:42:08;;;;;;;27.67;20.95;;;;;;;34.05;53.93;100398.41;5069683;28;69839;-38
2022/03/19 05:44:39;;;;;;;21.30;19.10;;;;;;;34.01;53.67;100378.16;5077954;27;65597;-39
2022/03/19 05:47:10;;;;;;;27.33;22.20;;;;;;;34.11;53.83;100394.66;5071569;28;71614;-39
2022/03/19 05:49:41;;;;;;;24.92;22.48;;;;;;;34.03;53.57;100360.50;5070004;28;65997;-39
2022/03/19 05:52:12;;;;;;;23.20;20.90;;;;;;;34.12;53.26;100384.59;5077276;28;70916;-38
2022/03/19 05:54:43;;;;;;;24.63;20.27;;;;;;;34.16;53.81;100389.28;5077314;27;66127;-39
2022/03/19 05:57:14;;;;;;;24.38;21.50;;;;;;;34.19;53.60;100391.50;5068122;28;70534;-38
2022/03/19 05:59:45;;;;;;;27.58;21.67;;;;;;;34.23;53.58;100386.34;5077576;27;65749;-39
2022/03/19 06:02:15;;;;;;;22.73;20.35;;;;;;;34.27;53.33;100382.06;5071536;27;70242;-38
2022/03/19 06:04:46;;;;;;;24.65;22.25;;;;;;;34.00;52.97;100371.09;5066903;28;66534;-39
2022/03/19 06:07:17;;;;;;;24.93;22.27;;;;;;;34.01;53.44;100383.63;5072154;28;70330;-40
2022/03/19 06:09:48;;;;;;;24.33;21.65;;;;;;;33.89;54.18;100388.38;5062395;28;66215;-39
2022/03/19 06:12:21;;;;;;;23.70;21.45;;;;;;;33.83;54.41;100383.94;5071644;27;70492;-40
2022/03/19 06:14:53;;;;;;;23.23;21.08;;;;;;;33.75;54.61;100383.28;5076114;28;65315;-40
2022/03/19 06:17:24;;;;;;;23.13;20.80;;;;;;;33.70;54.89;100377.78;5065140;28;70429;-38
2022/03/19 06:19:55;;;;;;;22.02;20.13;;;;;;;33.59;55.27;100363.22;5063165;28;66210;-38
2022/03/19 06:22:26;;;;;;;22.47;20.13;;;;;;;33.69;55.24;100381.59;5059377;28;70164;-39
2022/03/19 06:24:57;;;;;;;22.80;20.83;;;;;;;33.63;55.70;100382.59;5070317;28;66497;-39
2022/03/19 06:27:28;;;;;;;22.43;20.33;;;;;;;33.62;55.57;100380.13;5071048;27;69562;-39
2022/03/19 06:30:00;;;;;;;21.33;19.60;;;;;;;33.67;55.60;100378.28;5071382;28;65542;-39
2022/03/19 06:32:30;;;;;;;21.58;19.73;;;;;;;33.67;55.42;100372.84;5064289;27;70729;-37
2022/03/19 06:35:02;;;;;;;22.98;20.63;;;;;;;33.74;55.23;100367.22;5070915;28;65596;-38
2022/03/19 06:37:33;;;;;;;22.38;20.10;;;;;;;33.75;55.91;100372.41;5060943;28;70159;-39
2022/03/19 06:40:07;;;;;;;22.47;19.80;;;;;;;33.78;55.43;100374.63;5056130;28;65735;-39
2022/03/19 06:42:38;;;;;;;21.13;19.30;;;;;;;33.75;55.66;100364.25;5080214;27;69287;-37
2022/03/19 06:45:09;;;;;;;21.43;19.47;;;;;;;33.78;56.16;100368.38;5062471;27;64980;-38
2022/03/19 06:47:40;;;;;;;21.63;19.52;;;;;;;33.77;55.70;100373.00;5063506;28;70355;-38
2022/03/19 06:50:10;;;;;;;22.55;20.55;;;;;;;33.74;55.85;100378.94;5068421;28;66073;-39
2022/03/19 06:52:41;;;;;;;22.57;20.57;;;;;;;33.62;56.03;100364.63;5074149;28;71742;-39
2022/03/19 06:55:12;;;;;;;22.17;20.33;;;;;;;33.71;56.17;100363.13;5072730;28;66163;-38
2022/03/19 06:57:43;;;;;;;21.70;19.85;;;;;;;33.78;56.00;100371.09;5047461;28;69031;-38
2022/03/19 07:00:15;;;;;;;22.10;20.05;;;;;;;33.83;55.96;100368.44;5075130;28;66264;-37
2022/03/19 07:02:47;;;;;;;21.80;19.73;;;;;;;33.82;55.93;100372.22;5074754;28;69087;-37
2022/03/19 07:05:26;;;;;;;21.38;19.48;;;;;;;33.50;55.95;100307.59;5072922;28;66910;-37
2022/03/19 07:07:59;;;;;;;22.00;20.30;;;;;;;33.88;56.30;100362.22;5066748;27;68982;-39
2022/03/19 07:10:29;;;;;;;21.92;20.00;;;;;;;33.89;55.83;100364.69;5075516;28;63999;-37
2022/03/19 07:13:06;;;;;;;20.73;19.02;;;;;;;33.97;56.07;100360.72;5062646;28;69674;-37
2022/03/19 07:15:37;;;;;;;22.42;20.48;;;;;;;33.91;56.00;100367.19;5069306;28;66215;-37
2022/03/19 07:18:08;;;;;;;22.67;20.52;;;;;;;33.93;55.90;100351.41;5068747;28;69023;-37
2022/03/19 07:20:39;;;;;;;22.20;20.20;;;;;;;34.05;56.06;100357.59;5067935;28;65449;-38
2022/03/19 07:23:10;;;;;;;23.17;20.85;;;;;;;34.08;55.92;100362.50;5062117;27;70310;-37
2022/03/19 07:25:41;;;;;;;22.65;20.50;;;;;;;34.16;55.84;100358.53;5072660;28;66892;-37
2022/03/19 07:28:18;;;;;;;23.15;20.67;;;;;;;33.83;55.41;100289.53;5070199;28;69232;-37
2022/03/19 07:30:49;;;;;;;23.15;20.83;;;;;;;34.23;55.64;100354.50;5063358;28;65162;-37
2022/03/19 07:33:20;;;;;;;23.73;21.67;;;;;;;34.26;55.67;100354.00;5075720;28;70635;-38
2022/03/19 07:35:51;;;;;;;21.63;19.83;;;;;;;34.34;55.66;100349.19;5064965;28;66025;-37
2022/03/19 07:38:22;;;;;;;21.93;19.70;;;;;;;34.35;55.62;100342.63;5067025;27;69265;-37
2022/03/19 07:43:43;;;;;;;22.30;20.17;;;;;;;34.37;55.53;100341.31;5084863;27;69177;-38
2022/03/19 07:46:15;;;;;;;23.45;21.00;;;;;;;34.39;55.72;100330.19;5069301;28;65921;-37
2022/03/19 07:48:45;;;;;;;22.57;20.33;;;;;;;34.52;55.27;100335.22;5070781;28;69991;-38
2022/03/19 07:51:16;;;;;;;22.48;20.27;;;;;;;34.51;55.10;100328.09;5074249;28;66020;-39
2022/03/19 07:53:47;;;;;;;20.60;18.73;;;;;;;34.58;55.61;100328.75;5069362;28;69536;-38
2022/03/19 07:56:18;;;;;;;20.57;18.83;;;;;;;34.62;55.10;100339.94;5072428;28;67739;-38
2022/03/19 07:58:50;;;;;;;20.67;18.98;;;;;;;34.65;54.91;100323.91;5065296;28;70164;-39
2022/03/19 08:01:21;;;;;;;20.55;18.88;;;;;;;34.68;55.30;100328.81;5062752;28;66565;-39
2022/03/19 08:03:52;;;;;;;19.92;18.20;;;;;;;34.68;55.00;100331.53;5072566;28;69099;-38
2022/03/19 08:06:23;;;;;;;18.52;17.10;;;;;;;34.74;54.68;100339.75;5072253;28;66128;-38
2022/03/19 08:08:54;;;;;;;19.75;17.77;;;;;;;34.75;54.61;100331.34;5049624;28;70048;-38
2022/03/19 08:11:24;;;;;;;19.10;17.23;;;;;;;34.75;54.69;100335.97;5066879;28;66221;-38
2022/03/19 08:13:55;;;;;;;19.67;16.83;;;;;;;34.74;54.67;100318.78;5067208;28;70092;-37
2022/03/19 08:16:26;;;;;;;18.80;16.85;;;;;;;34.77;55.00;100320.16;5070046;28;65861;-36
2022/03/19 08:18:57;;;;;;;16.83;15.68;;;;;;;34.80;54.47;100333.28;5079014;28;69515;-38
2022/03/19 08:21:28;;;;;;;17.35;15.80;;;;;;;34.74;54.50;100315.25;5077343;27;65894;-38
2022/03/19 08:23:59;;;;;;;19.13;17.48;;;;;;;34.86;54.41;100321.34;5062689;28;70150;-36
2022/03/19 08:26:30;;;;;;;18.57;16.80;;;;;;;34.89;54.68;100323.56;5072481;27;67072;-39
2022/03/19 08:29:02;;;;;;;17.83;16.25;;;;;;;34.87;55.02;100317.53;5053923;28;69390;-38
2022/03/19 08:31:33;;;;;;;;;;;;;;;34.61;56.03;100314.63;5069098;28;66186;-38
2022/03/19 08:34:04;;;;;;;16.20;15.10;;;;;;;34.84;55.05;100305.25;5070579;28;70503;-38
2022/03/19 08:36:35;;;;;;;16.40;15.05;;;;;;;34.97;54.81;100308.63;5063145;27;66069;-38
2022/03/19 08:41:54;;;;;;;15.98;14.68;;;;;;;34.96;54.22;100312.41;5065910;28;65446;-37
2022/03/19 08:44:26;;;;;;;15.38;14.02;;;;;;;34.94;54.18;100315.41;5087254;27;71115;-38
2022/03/19 08:46:57;;;;;;;15.57;13.82;;;;;;;35.03;54.06;100308.38;5069126;28;66298;-38
2022/03/19 08:49:28;;;;;;;14.88;13.48;;;;;;;34.93;54.43;100302.84;5071766;28;69641;-39
2022/03/19 08:51:59;;;;;;;16.27;14.70;;;;;;;34.90;54.72;100320.56;5061703;28;66373;-38
2022/03/19 08:54:29;;;;;;;16.03;14.00;;;;;;;34.90;54.94;100327.91;5066303;28;69952;-38
2022/03/19 08:57:00;;;;;;;15.65;14.00;;;;;;;34.94;55.15;100318.16;5045780;28;65672;-38
2022/03/19 08:59:31;;;;;;;14.73;13.30;;;;;;;35.08;55.61;100319.38;5063781;28;69389;-39
2022/03/19 09:02:02;;;;;;;14.88;12.98;;;;;;;35.14;55.21;100321.03;5067067;28;65840;-39
2022/03/19 09:04:33;;;;;;;15.90;12.85;;;;;;;35.21;55.62;100314.53;5064220;28;70666;-39
2022/03/19 09:07:04;;;;;;;17.23;12.40;;;;;;;35.41;54.64;100319.25;5070593;28;66330;-39
2022/03/19 09:09:35;;;;;;;14.20;12.88;;;;;;;35.40;55.20;100329.34;5071702;28;70415;-38
2022/03/19 09:12:26;;;;;;;14.90;13.10;;;;;;;35.39;55.40;100327.72;5065046;28;64583;-38
2022/03/19 09:14:57;;;;;;;14.13;12.43;;;;;;;35.21;54.67;100287.25;5066925;27;70044;-37
2022/03/19 09:17:28;;;;;;;12.13;11.23;;;;;;;35.48;54.28;100319.84;5067884;28;66374;-38
2022/03/19 09:19:58;;;;;;;15.57;11.70;;;;;;;35.49;54.28;100321.50;5058292;28;69538;-38
2022/03/19 09:22:33;;;;;;;12.00;10.90;;;;;;;35.51;53.84;100322.88;5052758;28;66336;-38
2022/03/19 09:25:04;;;;;;;12.68;10.98;;;;;;;35.48;53.33;100309.75;5061617;28;70220;-38
2022/03/19 09:27:36;;;;;;;11.98;11.13;;;;;;;35.49;52.55;100305.94;5057351;28;65142;-38
2022/03/19 09:30:09;;;;;;;11.43;10.40;;;;;;;35.49;50.81;100305.94;5067752;27;70601;-43
2022/03/19 09:32:41;;;;;;;11.27;10.40;;;;;;;35.22;51.13;100314.28;5078318;28;65869;-38
2022/03/19 09:35:29;;;;;;;14.40;10.48;;;;;;;34.91;52.17;100315.94;5079739;28;70169;-38
2022/03/19 09:38:00;;;;;;;12.23;10.65;;;;;;;34.67;52.28;100305.41;5071944;28;66299;-38
2022/03/19 09:40:31;;;;;;;12.07;11.05;;;;;;;34.62;52.60;100324.41;5072635;28;69962;-38
2022/03/19 09:43:03;;;;;;;10.98;10.05;;;;;;;34.48;52.28;100329.44;5044031;27;66394;-37
2022/03/19 09:45:34;;;;;;;;;;;;;;;34.18;52.85;100331.84;5072185;27;69530;-37
2022/03/19 09:48:05;;;;;;;10.52;9.27;;;;;;;34.08;51.56;100280.06;5067746;27;66952;-36
2022/03/19 09:50:36;;;;;;;12.80;9.33;;;;;;;34.31;51.81;100322.47;5067074;28;70358;-37
2022/03/19 09:53:07;;;;;;;13.00;9.68;;;;;;;34.18;52.27;100319.06;5071442;28;64074;-37
2022/03/19 09:55:41;;;;;;;9.93;9.10;;;;;;;34.21;52.04;100328.63;5066582;28;70470;-37
2022/03/19 09:58:13;;;;;;;10.82;9.80;;;;;;;34.10;52.08;100327.72;5067066;28;65619;-37
2022/03/19 10:00:44;;;;;;;10.00;9.27;;;;;;;34.11;53.08;100332.06;5053021;28;69129;-38
2022/03/19 10:03:15;;;;;;;11.85;10.80;;;;;;;33.73;52.84;100273.91;5059848;27;66508;-37
2022/03/19 10:08:41;;;;;;;12.02;10.85;;;;;;;34.02;52.66;100342.56;5062848;27;66736;-38
2022/03/19 10:11:15;;;;;;;11.52;10.70;;;;;;;33.91;52.76;100323.66;5066725;27;70362;-37
2022/03/19 10:13:47;;;;;;;11.73;10.82;;;;;;;33.97;52.30;100344.41;5059193;28;65582;-38
2022/03/19 10:16:24;;;;;;;10.25;9.32;;;;;;;33.93;51.97;100344.06;5070704;28;70176;-39
2022/03/19 10:18:59;;;;;;;9.65;8.75;;;;;;;33.87;52.04;100336.09;5073885;28;66144;-37
2022/03/19 10:21:36;;;;;;;9.82;8.80;;;;;;;33.81;51.71;100344.19;5077192;27;70255;-38
2022/03/19 10:24:08;;;;;;;12.82;9.63;;;;;;;33.77;51.67;100343.06;5065892;28;66326;-38
2022/03/19 10:26:40;;;;;;;10.07;9.15;;;;;;;33.75;51.77;100347.94;5064872;27;70418;-37
2022/03/19 10:29:10;;;;;;;10.40;9.67;;;;;;;33.64;51.74;100340.72;5075127;28;65940;-38
2022/03/19 10:31:45;;;;;;;11.20;10.18;;;;;;;33.67;51.67;100351.09;5059107;28;70182;-37
2022/03/19 10:34:17;;;;;;;10.05;9.27;;;;;;;33.67;51.79;100356.53;5075490;28;66247;-37
2022/03/19 10:36:48;;;;;;;10.60;9.75;;;;;;;33.59;51.88;100344.19;5080040;27;70030;-37
2022/03/19 10:39:25;;;;;;;10.23;9.57;;;;;;;33.63;52.56;100358.13;5077749;28;65559;-37
2022/03/19 10:41:58;;;;;;;11.55;9.82;;;;;;;33.56;53.16;100360.19;5078664;27;69547;-38
2022/03/19 10:44:29;;;;;;;10.43;9.48;;;;;;;33.50;53.48;100355.72;5067148;27;65466;-37
2022/03/19 10:47:02;;;;;;;;;;;;;;;33.21;54.48;100379.47;5094487;27;70348;-37
2022/03/19 10:49:32;;;;;;;12.32;10.60;;;;;;;33.40;54.12;100369.16;5073956;28;66096;-37
2022/03/19 10:52:05;;;;;;;12.73;10.00;;;;;;;33.41;53.91;100382.53;5072900;27;69980;-37
2022/03/19 10:54:36;;;;;;;9.65;8.85;;;;;;;33.35;52.68;100389.78;5073814;28;66912;-38
2022/03/19 10:57:06;;;;;;;10.93;9.93;;;;;;;33.30;52.51;100400.56;5061444;28;70031;-38
2022/03/19 10:59:37;;;;;;;9.43;8.82;;;;;;;33.21;52.65;100391.19;5074432;28;65747;-37
2022/03/19 11:02:11;;;;;;;9.90;9.20;;;;;;;33.24;52.35;100411.59;5065985;28;70584;-37
2022/03/19 11:04:43;;;;;;;9.75;9.00;;;;;;;33.13;52.76;100402.47;5090130;27;66113;-38
2022/03/19 11:07:17;;;;;;;9.65;8.90;;;;;;;33.18;54.20;100418.84;5059067;28;69289;-37
2022/03/19 11:09:53;;;;;;;9.85;8.80;;;;;;;32.87;53.65;100363.97;5064532;28;66322;-37
2022/03/19 11:12:28;;;;;;;10.20;9.68;;;;;;;33.08;54.11;100418.69;5059531;28;70118;-37
2022/03/19 11:15:02;;;;;;;10.50;9.63;;;;;;;33.08;53.93;100424.13;5067387;28;66390;-38
2022/03/19 11:17:33;;;;;;;10.32;9.30;;;;;;;32.97;54.53;100411.41;5062556;28;69857;-38
2022/03/19 11:20:10;;;;;;;10.23;9.23;;;;;;;33.05;54.66;100435.50;5070557;27;66269;-37
2022/03/19 11:22:47;;;;;;;10.20;9.57;;;;;;;33.02;54.88;100447.69;5075745;28;69205;-37
2022/03/19 11:25:27;;;;;;;12.52;9.38;;;;;;;32.58;55.08;100395.78;5065591;27;66161;-38
2022/03/19 11:28:04;;;;;;;11.20;8.65;;;;;;;32.60;55.36;100406.44;5062307;28;69204;-38
2022/03/19 11:30:42;;;;;;;9.98;9.10;;;;;;;32.74;55.10;100432.22;5070381;28;65538;-38
2022/03/19 11:33:18;;;;;;;10.25;8.55;;;;;;;32.86;54.59;100443.84;5064500;27;69331;-37
2022/03/19 11:36:05;;;;;;;15.88;9.40;;;;;;;32.93;54.14;100458.09;5063410;28;66383;-38
2022/03/19 11:38:42;;;;;;;10.00;8.98;;;;;;;32.73;54.35;100416.97;5069075;27;68885;-38
2022/03/19 11:41:29;;;;;;;9.82;8.35;;;;;;;32.83;54.49;100430.75;5066111;28;65767;-37
2022/03/19 11:44:23;;;;;;;10.77;9.68;;;;;;;32.92;55.03;100469.19;5068769;27;70197;-39
2022/03/19 11:47:05;;;;;;;11.32;10.18;;;;;;;32.98;55.23;100473.66;5083736;27;66589;-39
2022/03/19 11:49:56;;;;;;;10.63;9.70;;;;;;;32.66;55.95;100432.59;5064526;28;69754;-39
2022/03/19 11:52:27;;;;;;;12.10;10.80;;;;;;;32.93;56.58;100481.69;5068125;27;66538;-38